createdAt,value
2019-03-22T00:00:34.198Z,18.07
2019-03-22T00:05:37.655Z,12.77
2019-03-22T00:10:41.050Z,13.37
2019-03-22T00:15:44.478Z,15.40
2019-03-22T00:20:47.557Z,14.50
2019-03-22T00:25:50.978Z,12.70
2019-03-22T00:30:54.386Z,12.87
2019-03-22T00:35:58.114Z,13.40
2019-03-22T00:41:01.454Z,12.90
2019-03-22T00:46:04.856Z,12.97
2019-03-22T00:51:08.254Z,13.63
2019-03-22T00:56:11.335Z,12.73
2019-03-22T01:01:14.410Z,12.50
2019-03-22T01:06:17.782Z,14.37
2019-03-22T01:11:21.202Z,11.90
2019-03-22T01:16:24.618Z,13.73
2019-03-22T01:21:28.325Z,14.27
2019-03-22T01:26:31.651Z,13.57
2019-03-22T01:31:35.075Z,13.27
2019-03-22T01:36:38.158Z,12.17
2019-03-22T01:41:41.235Z,12.33
2019-03-22T01:46:44.546Z,11.27
2019-03-22T01:51:47.613Z,13.40
2019-03-22T01:56:50.743Z,11.73
2019-03-22T02:01:54.054Z,11.27
2019-03-22T02:18:46.375Z,11.77
2019-03-22T02:23:52.025Z,11.20
2019-03-22T02:28:54.892Z,10.83
2019-03-22T02:33:58.300Z,11.03
2019-03-22T02:39:01.967Z,12.90
2019-03-22T02:44:05.371Z,12.20
2019-03-22T02:49:08.781Z,11.83
2019-03-22T02:54:12.111Z,12.13
2019-03-22T02:59:15.942Z,11.47
2019-03-22T03:04:19.002Z,11.73
2019-03-22T03:09:22.404Z,11.23
2019-03-22T03:14:25.800Z,12.17
2019-03-22T03:19:29.483Z,11.33
2019-03-22T03:24:33.191Z,10.50
2019-03-22T03:29:36.916Z,11.23
2019-03-22T03:34:40.321Z,10.33
2019-03-22T03:39:43.400Z,11.77
2019-03-22T03:44:46.799Z,9.87
2019-03-22T03:49:50.199Z,11.57
2019-03-22T03:54:53.596Z,11.17
2019-03-22T03:59:57.052Z,10.90
2019-03-22T04:05:00.124Z,11.37
2019-03-22T04:10:05.438Z,12.30
2019-03-22T04:15:08.785Z,11.80
2019-03-22T04:20:11.976Z,11.03
2019-03-22T04:25:15.381Z,10.43
2019-03-22T04:30:18.450Z,10.23
2019-03-22T04:35:21.540Z,10.67
2019-03-22T04:40:29.179Z,10.30
2019-03-22T04:45:34.300Z,10.53
2019-03-22T04:50:40.715Z,10.50
2019-03-22T04:55:47.209Z,13.50
2019-03-22T05:00:51.852Z,10.77
2019-03-22T05:05:57.020Z,10.37
2019-03-22T05:11:01.924Z,10.37
2019-03-22T05:16:07.335Z,9.93
2019-03-22T05:21:11.088Z,11.47
2019-03-22T05:26:17.732Z,10.53
2019-03-22T05:31:25.315Z,10.93
2019-03-22T05:36:28.737Z,11.33
2019-03-22T05:41:32.412Z,11.40
2019-03-22T05:46:35.498Z,11.90
2019-03-22T05:51:38.580Z,11.07
2019-03-22T05:56:42.273Z,10.80
2019-03-22T06:01:45.694Z,10.70
2019-03-22T06:06:49.015Z,11.10
2019-03-22T06:11:52.086Z,12.63
2019-03-22T06:16:55.162Z,11.73
2019-03-22T06:21:58.567Z,11.30
2019-03-22T06:27:01.972Z,9.70
2019-03-22T06:32:05.048Z,9.03
2019-03-22T06:37:08.679Z,8.43
2019-03-22T06:42:12.079Z,8.10
2019-03-22T06:47:15.429Z,7.60
2019-03-22T06:52:18.498Z,8.20
2019-03-22T06:57:21.571Z,8.50
2019-03-22T07:02:24.935Z,8.20
2019-03-22T07:07:28.027Z,8.10
2019-03-22T07:12:35.066Z,7.87
2019-03-22T07:17:38.138Z,7.70
2019-03-22T07:22:41.563Z,8.07
2019-03-22T07:27:44.666Z,9.07
2019-03-22T07:32:48.071Z,8.63
2019-03-22T07:37:51.798Z,9.53
2019-03-22T07:42:55.211Z,11.00
2019-03-22T07:47:58.873Z,8.90
2019-03-22T07:53:01.973Z,8.60
2019-03-22T07:58:05.048Z,10.03
2019-03-22T08:03:08.368Z,8.10
2019-03-22T08:08:11.682Z,11.20
2019-03-22T08:13:14.808Z,9.00
2019-03-22T08:18:18.178Z,8.47
2019-03-22T08:23:23.261Z,6.83
2019-03-22T08:28:26.323Z,7.13
2019-03-22T08:33:29.980Z,7.80
2019-03-22T08:38:33.065Z,6.27
2019-03-22T08:43:36.162Z,6.43
2019-03-22T08:48:39.620Z,6.97
2019-03-22T08:53:54.650Z,7.67
2019-03-22T08:58:47.558Z,6.33
2019-03-22T09:03:50.668Z,7.60
2019-03-22T09:08:54.324Z,8.63
2019-03-22T09:13:57.437Z,7.20
2019-03-22T09:19:00.927Z,7.87
2019-03-22T09:24:04.386Z,7.27
2019-03-22T09:29:08.003Z,9.70
2019-03-22T09:34:11.415Z,7.40
2019-03-22T09:39:14.838Z,6.73
2019-03-22T09:44:18.552Z,7.23
2019-03-22T09:49:21.963Z,7.20
2019-03-22T09:54:25.599Z,9.37
2019-03-22T09:59:28.677Z,8.70
2019-03-22T10:04:31.759Z,7.97
2019-03-22T10:09:35.180Z,8.17
2019-03-22T10:14:38.580Z,6.83
2019-03-22T10:19:42.347Z,8.30
2019-03-22T10:24:45.807Z,8.77
2019-03-22T10:29:49.148Z,8.83
2019-03-22T10:34:52.266Z,6.27
2019-03-22T10:39:55.745Z,7.37
2019-03-22T10:44:59.081Z,7.37
2019-03-22T10:50:02.825Z,7.53
2019-03-22T10:55:28.236Z,8.27
2019-03-22T11:00:14.935Z,6.60
2019-03-22T11:05:18.574Z,6.23
2019-03-22T11:10:22.834Z,7.93
2019-03-22T11:15:25.893Z,5.50
2019-03-22T11:20:29.015Z,7.33
2019-03-22T11:25:32.659Z,5.47
2019-03-22T11:30:36.184Z,7.40
2019-03-22T11:35:39.826Z,7.67
2019-03-22T11:40:42.905Z,4.93
2019-03-22T11:45:46.404Z,6.97
2019-03-22T11:50:49.526Z,6.17
2019-03-22T11:55:52.851Z,6.63
2019-03-22T12:00:56.492Z,7.97
2019-03-22T12:05:59.966Z,5.20
2019-03-22T12:11:03.041Z,6.93
2019-03-22T12:16:06.470Z,5.97
2019-03-22T12:21:09.575Z,6.60
2019-03-22T12:26:13.304Z,7.30
2019-03-22T12:31:16.462Z,6.37
2019-03-22T12:36:19.522Z,5.87
2019-03-22T12:41:22.930Z,5.37
2019-03-22T12:46:26.587Z,5.17
2019-03-22T12:51:30.299Z,5.67
2019-03-22T12:56:34.426Z,6.37
2019-03-22T13:01:37.748Z,7.20
2019-03-22T13:06:41.445Z,5.77
2019-03-22T13:11:44.867Z,6.30
2019-03-22T13:16:48.529Z,4.23
2019-03-22T13:21:51.947Z,5.70
2019-03-22T13:26:55.338Z,5.97
2019-03-22T13:31:59.027Z,5.73
2019-03-22T13:37:02.433Z,6.83
2019-03-22T13:42:06.079Z,6.57
2019-03-22T13:47:09.722Z,7.60
2019-03-22T13:52:14.318Z,4.83
2019-03-22T13:57:17.681Z,9.10
2019-03-22T14:02:22.962Z,5.90
2019-03-22T14:07:26.609Z,4.33
2019-03-22T14:12:37.025Z,4.93
2019-03-22T14:17:35.070Z,4.93
2019-03-22T14:22:38.779Z,4.43
2019-03-22T14:27:42.095Z,6.70
2019-03-22T14:32:45.571Z,4.47
2019-03-22T14:37:49.220Z,6.77
2019-03-22T14:42:52.623Z,6.37
2019-03-22T14:47:56.272Z,8.60
2019-03-22T14:52:59.686Z,6.07
2019-03-22T14:58:02.755Z,6.63
2019-03-22T15:03:08.029Z,6.07
2019-03-22T15:08:11.134Z,5.47
2019-03-22T15:13:14.787Z,4.93
2019-03-22T15:18:19.900Z,4.87
2019-03-22T15:23:41.311Z,5.63
2019-03-22T15:28:51.964Z,4.97
2019-03-22T15:34:00.219Z,4.10
2019-03-22T15:39:09.812Z,5.27
2019-03-22T15:44:13.169Z,4.50
2019-03-22T15:49:16.609Z,5.77
2019-03-22T15:54:20.049Z,5.77
2019-03-22T15:59:23.443Z,3.50
2019-03-22T16:04:26.855Z,5.03
2019-03-22T16:09:31.152Z,4.13
2019-03-22T16:14:34.426Z,4.70
2019-03-22T16:19:37.511Z,3.67
2019-03-22T16:24:40.929Z,5.23
2019-03-22T16:29:44.431Z,3.37
2019-03-22T16:34:47.502Z,3.30
2019-03-22T16:39:50.903Z,3.50
2019-03-22T16:44:54.227Z,3.07
2019-03-22T16:49:57.627Z,4.47
2019-03-22T16:55:00.704Z,3.17
2019-03-22T17:00:07.469Z,4.00
2019-03-22T17:05:11.144Z,3.43
2019-03-22T17:10:14.310Z,3.17
2019-03-22T17:15:17.390Z,6.33
2019-03-22T17:20:20.706Z,2.80
2019-03-22T17:25:24.123Z,4.00
2019-03-22T17:30:27.536Z,6.33
2019-03-22T17:35:30.872Z,6.30
2019-03-22T17:40:34.215Z,2.93
2019-03-22T17:45:37.624Z,5.10
2019-03-22T17:50:40.709Z,3.73
2019-03-22T17:55:43.975Z,4.10
2019-03-22T18:00:47.679Z,2.93
2019-03-22T18:05:51.258Z,5.63
2019-03-22T18:10:54.664Z,3.27
2019-03-22T18:15:58.025Z,6.10
2019-03-22T18:21:01.434Z,4.87
2019-03-22T18:26:04.948Z,4.43
2019-03-22T18:31:08.747Z,4.77
2019-03-22T18:36:11.841Z,4.00
2019-03-22T18:41:15.246Z,4.27
2019-03-22T18:46:18.380Z,3.33
2019-03-22T18:51:22.212Z,3.57
2019-03-22T18:56:25.955Z,5.00
2019-03-22T19:01:29.667Z,4.77
2019-03-22T19:06:33.184Z,6.17
2019-03-22T19:11:36.715Z,5.03
2019-03-22T19:16:40.087Z,4.77
2019-03-22T19:21:43.233Z,4.80
2019-03-22T19:26:46.642Z,3.87
2019-03-22T19:31:50.069Z,4.47
2019-03-22T19:36:53.454Z,5.50
2019-03-22T19:41:57.320Z,4.90
2019-03-22T19:47:00.977Z,3.37
2019-03-22T19:52:04.346Z,3.30
2019-03-22T19:57:07.835Z,4.70
2019-03-22T20:02:11.334Z,6.33
2019-03-22T20:07:14.914Z,6.27
2019-03-22T20:12:18.024Z,6.77
2019-03-22T20:17:21.942Z,8.57
2019-03-22T20:22:25.742Z,4.93
2019-03-22T20:27:29.292Z,8.57
2019-03-22T20:32:32.672Z,9.87
2019-03-22T20:37:36.980Z,7.87
2019-03-22T20:42:41.446Z,6.73
2019-03-22T20:47:54.362Z,8.50
2019-03-22T20:52:58.271Z,6.93
2019-03-22T20:58:01.822Z,8.00
2019-03-22T21:03:08.616Z,9.20
2019-03-22T21:08:12.180Z,8.10
2019-03-22T21:13:15.713Z,7.13
2019-03-22T21:18:20.501Z,7.33
2019-03-22T21:23:24.264Z,8.23
2019-03-22T21:28:27.688Z,7.17
2019-03-22T21:33:30.747Z,7.03
2019-03-22T21:38:34.172Z,7.10
2019-03-22T21:43:37.582Z,7.37
2019-03-22T21:48:41.298Z,7.00
2019-03-22T21:53:44.378Z,6.70
2019-03-22T21:58:48.128Z,7.60
2019-03-22T22:03:51.846Z,8.17
2019-03-22T22:08:55.254Z,9.00
2019-03-22T22:13:58.667Z,7.23
2019-03-22T22:19:02.105Z,7.13
2019-03-22T22:24:05.515Z,8.20
2019-03-22T22:29:08.930Z,10.13
2019-03-22T22:34:12.008Z,8.33
2019-03-22T22:39:15.743Z,11.27
2019-03-22T22:44:19.144Z,9.53
2019-03-22T22:49:22.218Z,8.03
2019-03-22T22:54:25.597Z,9.67
2019-03-22T22:59:29.256Z,7.47
2019-03-22T23:04:32.385Z,10.03
2019-03-22T23:09:35.839Z,8.53
2019-03-22T23:14:39.570Z,9.47
2019-03-22T23:19:43.271Z,9.03
2019-03-22T23:24:46.342Z,8.40
2019-03-22T23:29:50.032Z,8.43
2019-03-22T23:34:59.095Z,10.40
2019-03-22T23:39:58.172Z,8.40
2019-03-22T23:45:01.595Z,9.53
2019-03-22T23:50:08.332Z,10.03
2019-03-22T23:55:11.716Z,7.37
